sensor_id;sensor_type;location;lat;lon;timestamp;temperature;humidity
53643;DHT22;39546;45.534;12.048;2022-09-09T00:02:28;24.40;75.10
53643;DHT22;39546;45.534;12.048;2022-09-09T00:15:14;24.30;74.80
53643;DHT22;39546;45.534;12.048;2022-09-09T00:21:35;24.30;74.90
53643;DHT22;39546;45.534;12.048;2022-09-09T00:27:45;24.30;75.20
53643;DHT22;39546;45.534;12.048;2022-09-09T00:33:49;24.30;75.00
53643;DHT22;39546;45.534;12.048;2022-09-09T00:39:57;24.20;75.20
53643;DHT22;39546;45.534;12.048;2022-09-09T00:53:18;24.10;75.40
53643;DHT22;39546;45.534;12.048;2022-09-09T01:06:11;24.00;75.60
53643;DHT22;39546;45.534;12.048;2022-09-09T01:12:23;24.00;75.70
53643;DHT22;39546;45.534;12.048;2022-09-09T01:18:32;24.00;75.70
53643;DHT22;39546;45.534;12.048;2022-09-09T01:24:45;24.00;75.70
53643;DHT22;39546;45.534;12.048;2022-09-09T01:30:50;24.00;75.70
53643;DHT22;39546;45.534;12.048;2022-09-09T01:37:03;23.90;76.10
53643;DHT22;39546;45.534;12.048;2022-09-09T01:43:09;23.90;76.40
53643;DHT22;39546;45.534;12.048;2022-09-09T01:49:12;23.80;76.70
53643;DHT22;39546;45.534;12.048;2022-09-09T01:55:15;23.70;77.00
53643;DHT22;39546;45.534;12.048;2022-09-09T02:07:38;23.70;76.90
53643;DHT22;39546;45.534;12.048;2022-09-09T02:14:12;23.70;76.90
53643;DHT22;39546;45.534;12.048;2022-09-09T02:20:40;23.70;76.90
53643;DHT22;39546;45.534;12.048;2022-09-09T02:26:45;23.70;77.00
53643;DHT22;39546;45.534;12.048;2022-09-09T02:32:53;23.60;77.30
53643;DHT22;39546;45.534;12.048;2022-09-09T02:39:01;23.60;77.40
53643;DHT22;39546;45.534;12.048;2022-09-09T02:45:06;23.60;77.40
53643;DHT22;39546;45.534;12.048;2022-09-09T02:51:21;23.60;77.40
53643;DHT22;39546;45.534;12.048;2022-09-09T02:57:49;23.60;77.60
53643;DHT22;39546;45.534;12.048;2022-09-09T03:03:53;23.50;77.80
53643;DHT22;39546;45.534;12.048;2022-09-09T03:09:57;23.50;77.70
53643;DHT22;39546;45.534;12.048;2022-09-09T03:16:00;23.50;77.40
53643;DHT22;39546;45.534;12.048;2022-09-09T03:22:03;23.60;77.40
53643;DHT22;39546;45.534;12.048;2022-09-09T03:28:06;23.50;77.50
53643;DHT22;39546;45.534;12.048;2022-09-09T03:34:09;23.50;77.70
53643;DHT22;39546;45.534;12.048;2022-09-09T03:40:12;23.40;77.80
53643;DHT22;39546;45.534;12.048;2022-09-09T03:46:14;23.40;77.80
53643;DHT22;39546;45.534;12.048;2022-09-09T03:52:16;23.30;77.90
53643;DHT22;39546;45.534;12.048;2022-09-09T03:58:18;23.30;78.00
53643;DHT22;39546;45.534;12.048;2022-09-09T04:04:21;23.30;77.90
53643;DHT22;39546;45.534;12.048;2022-09-09T04:10:23;23.30;78.00
53643;DHT22;39546;45.534;12.048;2022-09-09T04:16:28;23.30;77.90
53643;DHT22;39546;45.534;12.048;2022-09-09T04:22:31;23.30;77.90
53643;DHT22;39546;45.534;12.048;2022-09-09T04:28:35;23.30;78.00
53643;DHT22;39546;45.534;12.048;2022-09-09T04:34:38;23.30;77.90
53643;DHT22;39546;45.534;12.048;2022-09-09T04:40:43;23.30;77.90
53643;DHT22;39546;45.534;12.048;2022-09-09T04:46:45;23.30;78.00
53643;DHT22;39546;45.534;12.048;2022-09-09T04:52:48;23.30;78.10
53643;DHT22;39546;45.534;12.048;2022-09-09T04:58:51;23.20;78.10
53643;DHT22;39546;45.534;12.048;2022-09-09T05:04:55;23.20;78.20
53643;DHT22;39546;45.534;12.048;2022-09-09T05:10:58;23.10;78.40
53643;DHT22;39546;45.534;12.048;2022-09-09T05:17:01;23.10;78.50
53643;DHT22;39546;45.534;12.048;2022-09-09T05:23:04;23.10;78.50
53643;DHT22;39546;45.534;12.048;2022-09-09T05:29:06;23.10;78.50
53643;DHT22;39546;45.534;12.048;2022-09-09T05:35:10;23.10;78.50
53643;DHT22;39546;45.534;12.048;2022-09-09T05:41:40;23.30;78.40
53643;DHT22;39546;45.534;12.048;2022-09-09T05:47:43;23.30;78.10
53643;DHT22;39546;45.534;12.048;2022-09-09T05:54:04;23.30;78.30
53643;DHT22;39546;45.534;12.048;2022-09-09T06:00:07;23.20;78.40
53643;DHT22;39546;45.534;12.048;2022-09-09T06:06:18;23.20;78.50
53643;DHT22;39546;45.534;12.048;2022-09-09T06:12:22;23.30;78.30
53643;DHT22;39546;45.534;12.048;2022-09-09T06:18:25;23.30;78.10
53643;DHT22;39546;45.534;12.048;2022-09-09T06:24:28;23.40;78.10
53643;DHT22;39546;45.534;12.048;2022-09-09T06:30:32;23.50;78.10
53643;DHT22;39546;45.534;12.048;2022-09-09T06:36:37;23.60;77.90
53643;DHT22;39546;45.534;12.048;2022-09-09T06:42:40;23.60;77.80
53643;DHT22;39546;45.534;12.048;2022-09-09T06:48:58;23.70;77.70
53643;DHT22;39546;45.534;12.048;2022-09-09T06:55:02;23.70;77.60
53643;DHT22;39546;45.534;12.048;2022-09-09T07:01:06;23.70;77.70
53643;DHT22;39546;45.534;12.048;2022-09-09T07:07:08;23.70;77.60
53643;DHT22;39546;45.534;12.048;2022-09-09T07:13:14;23.70;77.60
53643;DHT22;39546;45.534;12.048;2022-09-09T07:19:17;23.70;77.40
53643;DHT22;39546;45.534;12.048;2022-09-09T07:25:19;23.90;77.20
53643;DHT22;39546;45.534;12.048;2022-09-09T07:31:31;24.10;76.80
53643;DHT22;39546;45.534;12.048;2022-09-09T07:37:36;24.10;76.80
53643;DHT22;39546;45.534;12.048;2022-09-09T07:43:41;24.20;77.10
53643;DHT22;39546;45.534;12.048;2022-09-09T07:49:43;24.30;76.80
53643;DHT22;39546;45.534;12.048;2022-09-09T07:55:48;24.20;76.90
53643;DHT22;39546;45.534;12.048;2022-09-09T08:01:51;24.30;77.00
53643;DHT22;39546;45.534;12.048;2022-09-09T08:07:57;24.40;76.90
53643;DHT22;39546;45.534;12.048;2022-09-09T08:13:59;24.60;76.70
53643;DHT22;39546;45.534;12.048;2022-09-09T08:20:03;24.70;76.50
53643;DHT22;39546;45.534;12.048;2022-09-09T08:26:14;24.90;76.10
53643;DHT22;39546;45.534;12.048;2022-09-09T08:32:16;25.00;75.70
53643;DHT22;39546;45.534;12.048;2022-09-09T08:38:34;25.10;75.40
53643;DHT22;39546;45.534;12.048;2022-09-09T08:51:15;25.40;74.50
53643;DHT22;39546;45.534;12.048;2022-09-09T08:58:19;25.60;74.40
53643;DHT22;39546;45.534;12.048;2022-09-09T09:04:33;25.80;74.00
53643;DHT22;39546;45.534;12.048;2022-09-09T09:10:46;25.90;73.60
53643;DHT22;39546;45.534;12.048;2022-09-09T09:16:55;25.90;73.60
53643;DHT22;39546;45.534;12.048;2022-09-09T09:23:03;25.90;73.60
53643;DHT22;39546;45.534;12.048;2022-09-09T09:29:16;25.80;73.80
53643;DHT22;39546;45.534;12.048;2022-09-09T09:35:21;25.60;74.10
53643;DHT22;39546;45.534;12.048;2022-09-09T09:41:41;25.40;74.40
53643;DHT22;39546;45.534;12.048;2022-09-09T09:47:45;25.30;74.70
53643;DHT22;39546;45.534;12.048;2022-09-09T09:53:49;25.20;74.80
53643;DHT22;39546;45.534;12.048;2022-09-09T10:00:22;25.20;74.80
53643;DHT22;39546;45.534;12.048;2022-09-09T10:06:36;25.40;74.50
53643;DHT22;39546;45.534;12.048;2022-09-09T10:13:09;25.90;73.60
53643;DHT22;39546;45.534;12.048;2022-09-09T10:19:16;26.30;72.80
53643;DHT22;39546;45.534;12.048;2022-09-09T10:38:17;26.60;71.30
53643;DHT22;39546;45.534;12.048;2022-09-09T10:44:23;26.80;71.10
53643;DHT22;39546;45.534;12.048;2022-09-09T10:50:50;27.10;70.60
53643;DHT22;39546;45.534;12.048;2022-09-09T11:03:28;26.90;69.80
53643;DHT22;39546;45.534;12.048;2022-09-09T11:09:41;27.10;69.60
53643;DHT22;39546;45.534;12.048;2022-09-09T11:15:53;27.20;69.30
53643;DHT22;39546;45.534;12.048;2022-09-09T11:21:58;26.90;69.30
53643;DHT22;39546;45.534;12.048;2022-09-09T11:34:50;27.30;69.00
53643;DHT22;39546;45.534;12.048;2022-09-09T11:41:03;27.30;68.50
53643;DHT22;39546;45.534;12.048;2022-09-09T11:47:31;27.20;68.50
53643;DHT22;39546;45.534;12.048;2022-09-09T11:53:35;27.00;68.70
53643;DHT22;39546;45.534;12.048;2022-09-09T11:59:38;26.80;69.00
53643;DHT22;39546;45.534;12.048;2022-09-09T12:05:45;26.80;69.40
53643;DHT22;39546;45.534;12.048;2022-09-09T12:12:33;26.70;69.10
53643;DHT22;39546;45.534;12.048;2022-09-09T12:18:46;26.70;69.30
53643;DHT22;39546;45.534;12.048;2022-09-09T12:31:27;26.60;70.00
53643;DHT22;39546;45.534;12.048;2022-09-09T12:51:52;26.30;70.20
53643;DHT22;39546;45.534;12.048;2022-09-09T12:57:54;26.30;70.00
53643;DHT22;39546;45.534;12.048;2022-09-09T13:03:57;26.30;70.00
53643;DHT22;39546;45.534;12.048;2022-09-09T13:09:59;26.30;70.20
53643;DHT22;39546;45.534;12.048;2022-09-09T13:16:02;26.30;70.20
53643;DHT22;39546;45.534;12.048;2022-09-09T13:22:30;26.20;70.00
53643;DHT22;39546;45.534;12.048;2022-09-09T13:28:34;25.60;70.20
53643;DHT22;39546;45.534;12.048;2022-09-09T13:34:39;24.80;71.30
53643;DHT22;39546;45.534;12.048;2022-09-09T13:41:05;24.10;72.50
53643;DHT22;39546;45.534;12.048;2022-09-09T13:53:16;23.50;75.70
53643;DHT22;39546;45.534;12.048;2022-09-09T13:59:19;23.40;76.00
53643;DHT22;39546;45.534;12.048;2022-09-09T14:05:22;23.70;75.70
53643;DHT22;39546;45.534;12.048;2022-09-09T14:11:25;24.00;75.40
53643;DHT22;39546;45.534;12.048;2022-09-09T14:17:27;24.20;75.20
53643;DHT22;39546;45.534;12.048;2022-09-09T14:23:32;24.30;75.10
53643;DHT22;39546;45.534;12.048;2022-09-09T14:29:34;24.40;75.10
53643;DHT22;39546;45.534;12.048;2022-09-09T14:35:46;24.50;75.00
53643;DHT22;39546;45.534;12.048;2022-09-09T14:41:49;24.80;75.00
53643;DHT22;39546;45.534;12.048;2022-09-09T14:47:51;24.90;74.90
53643;DHT22;39546;45.534;12.048;2022-09-09T14:53:56;25.10;74.70
53643;DHT22;39546;45.534;12.048;2022-09-09T14:59:59;25.30;74.70
53643;DHT22;39546;45.534;12.048;2022-09-09T15:06:13;25.40;74.70
53643;DHT22;39546;45.534;12.048;2022-09-09T15:12:17;25.40;74.80
53643;DHT22;39546;45.534;12.048;2022-09-09T15:18:25;25.60;74.80
53643;DHT22;39546;45.534;12.048;2022-09-09T15:24:28;25.80;74.50
53643;DHT22;39546;45.534;12.048;2022-09-09T15:30:30;26.00;74.60
53643;DHT22;39546;45.534;12.048;2022-09-09T15:36:37;26.20;74.40
53643;DHT22;39546;45.534;12.048;2022-09-09T15:42:40;26.30;74.60
53643;DHT22;39546;45.534;12.048;2022-09-09T15:49:04;26.30;74.60
53643;DHT22;39546;45.534;12.048;2022-09-09T15:55:06;26.30;75.00
53643;DHT22;39546;45.534;12.048;2022-09-09T16:01:17;26.30;75.30
53643;DHT22;39546;45.534;12.048;2022-09-09T16:07:20;26.40;75.10
53643;DHT22;39546;45.534;12.048;2022-09-09T16:13:22;26.40;74.90
53643;DHT22;39546;45.534;12.048;2022-09-09T16:19:37;26.50;74.50
53643;DHT22;39546;45.534;12.048;2022-09-09T16:25:39;26.60;73.80
53643;DHT22;39546;45.534;12.048;2022-09-09T16:31:44;27.00;72.80
53643;DHT22;39546;45.534;12.048;2022-09-09T16:37:53;28.00;70.40
53643;DHT22;39546;45.534;12.048;2022-09-09T16:43:57;29.30;67.50
53643;DHT22;39546;45.534;12.048;2022-09-09T16:49:59;29.80;66.20
53643;DHT22;39546;45.534;12.048;2022-09-09T16:56:06;28.60;68.80
53643;DHT22;39546;45.534;12.048;2022-09-09T17:02:09;27.50;71.00
53643;DHT22;39546;45.534;12.048;2022-09-09T17:08:12;26.80;72.20
53643;DHT22;39546;45.534;12.048;2022-09-09T17:14:16;26.40;72.80
53643;DHT22;39546;45.534;12.048;2022-09-09T17:20:18;26.30;72.90
53643;DHT22;39546;45.534;12.048;2022-09-09T17:26:24;26.10;73.10
53643;DHT22;39546;45.534;12.048;2022-09-09T17:32:28;25.80;73.40
53643;DHT22;39546;45.534;12.048;2022-09-09T17:38:53;25.60;73.60
53643;DHT22;39546;45.534;12.048;2022-09-09T17:44:55;25.40;73.80
53643;DHT22;39546;45.534;12.048;2022-09-09T17:50:58;25.30;74.00
53643;DHT22;39546;45.534;12.048;2022-09-09T17:57:13;25.10;74.10
53643;DHT22;39546;45.534;12.048;2022-09-09T18:03:17;25.00;74.10
53643;DHT22;39546;45.534;12.048;2022-09-09T18:09:22;24.80;74.30
53643;DHT22;39546;45.534;12.048;2022-09-09T18:15:25;24.70;74.40
53643;DHT22;39546;45.534;12.048;2022-09-09T18:21:28;24.60;74.60
53643;DHT22;39546;45.534;12.048;2022-09-09T18:27:33;24.50;74.70
53643;DHT22;39546;45.534;12.048;2022-09-09T18:33:37;24.40;74.80
53643;DHT22;39546;45.534;12.048;2022-09-09T18:39:39;24.30;74.70
53643;DHT22;39546;45.534;12.048;2022-09-09T18:45:41;24.30;74.90
53643;DHT22;39546;45.534;12.048;2022-09-09T18:51:44;24.20;74.90
53643;DHT22;39546;45.534;12.048;2022-09-09T18:57:47;24.20;74.80
53643;DHT22;39546;45.534;12.048;2022-09-09T19:03:49;24.00;75.00
53643;DHT22;39546;45.534;12.048;2022-09-09T19:09:52;23.90;75.20
53643;DHT22;39546;45.534;12.048;2022-09-09T19:16:08;23.80;75.30
53643;DHT22;39546;45.534;12.048;2022-09-09T19:22:18;23.70;75.40
53643;DHT22;39546;45.534;12.048;2022-09-09T19:28:20;23.70;75.60
53643;DHT22;39546;45.534;12.048;2022-09-09T19:34:25;23.60;75.60
53643;DHT22;39546;45.534;12.048;2022-09-09T19:40:26;23.50;75.60
53643;DHT22;39546;45.534;12.048;2022-09-09T19:46:56;23.50;75.60
53643;DHT22;39546;45.534;12.048;2022-09-09T19:53:53;23.60;75.50
53643;DHT22;39546;45.534;12.048;2022-09-09T20:00:12;23.60;75.50
53643;DHT22;39546;45.534;12.048;2022-09-09T20:06:19;23.60;75.50
53643;DHT22;39546;45.534;12.048;2022-09-09T20:12:22;23.70;75.60
53643;DHT22;39546;45.534;12.048;2022-09-09T20:18:30;23.70;75.80
53643;DHT22;39546;45.534;12.048;2022-09-09T20:25:09;23.70;75.90
53643;DHT22;39546;45.534;12.048;2022-09-09T20:31:14;23.70;75.90
53643;DHT22;39546;45.534;12.048;2022-09-09T20:37:16;23.60;76.10
53643;DHT22;39546;45.534;12.048;2022-09-09T20:43:18;23.60;76.50
53643;DHT22;39546;45.534;12.048;2022-09-09T20:49:21;23.40;76.80
53643;DHT22;39546;45.534;12.048;2022-09-09T20:55:25;23.30;76.80
53643;DHT22;39546;45.534;12.048;2022-09-09T21:01:27;23.30;76.90
53643;DHT22;39546;45.534;12.048;2022-09-09T21:07:29;23.20;77.00
53643;DHT22;39546;45.534;12.048;2022-09-09T21:13:33;23.20;77.00
53643;DHT22;39546;45.534;12.048;2022-09-09T21:19:35;23.30;76.80
53643;DHT22;39546;45.534;12.048;2022-09-09T21:25:38;23.20;76.80
53643;DHT22;39546;45.534;12.048;2022-09-09T21:31:41;23.10;76.90
53643;DHT22;39546;45.534;12.048;2022-09-09T21:37:44;23.00;77.00
53643;DHT22;39546;45.534;12.048;2022-09-09T21:43:51;23.00;76.90
53643;DHT22;39546;45.534;12.048;2022-09-09T21:49:54;22.90;76.90
53643;DHT22;39546;45.534;12.048;2022-09-09T21:56:00;22.80;77.10
53643;DHT22;39546;45.534;12.048;2022-09-09T22:02:03;22.80;77.20
53643;DHT22;39546;45.534;12.048;2022-09-09T22:08:06;22.80;77.10
53643;DHT22;39546;45.534;12.048;2022-09-09T22:14:08;22.80;77.00
53643;DHT22;39546;45.534;12.048;2022-09-09T22:20:11;22.80;77.00
53643;DHT22;39546;45.534;12.048;2022-09-09T22:26:13;22.80;77.00
53643;DHT22;39546;45.534;12.048;2022-09-09T22:32:16;22.80;77.00
53643;DHT22;39546;45.534;12.048;2022-09-09T22:38:18;22.70;77.10
53643;DHT22;39546;45.534;12.048;2022-09-09T22:44:25;22.60;77.20
53643;DHT22;39546;45.534;12.048;2022-09-09T22:50:27;22.70;77.30
53643;DHT22;39546;45.534;12.048;2022-09-09T22:56:29;22.80;77.20
53643;DHT22;39546;45.534;12.048;2022-09-09T23:02:31;22.70;77.10
53643;DHT22;39546;45.534;12.048;2022-09-09T23:08:36;22.70;77.20
53643;DHT22;39546;45.534;12.048;2022-09-09T23:14:39;22.70;77.40
53643;DHT22;39546;45.534;12.048;2022-09-09T23:20:41;22.70;77.40
53643;DHT22;39546;45.534;12.048;2022-09-09T23:26:44;22.50;77.40
53643;DHT22;39546;45.534;12.048;2022-09-09T23:32:50;22.40;77.40
53643;DHT22;39546;45.534;12.048;2022-09-09T23:38:52;22.30;77.60
53643;DHT22;39546;45.534;12.048;2022-09-09T23:45:19;22.30;77.60
53643;DHT22;39546;45.534;12.048;2022-09-09T23:51:22;22.40;77.50
53643;DHT22;39546;45.534;12.048;2022-09-09T23:57:25;22.40;77.70
